sensor_id;sensor_type;location;lat;lon;timestamp;P1;durP1;ratioP1;P2;durP2;ratioP2
16440;SDS011;8330;-33.858;151.184;2023-07-28T00:02:07;1.95;;;1.00;;
16440;SDS011;8330;-33.858;151.184;2023-07-28T00:04:38;2.35;;;0.98;;
16440;SDS011;8330;-33.858;151.184;2023-07-28T00:07:09;2.10;;;1.02;;
16440;SDS011;8330;-33.858;151.184;2023-07-28T00:09:40;6.30;;;1.08;;
16440;SDS011;8330;-33.858;151.184;2023-07-28T00:12:11;3.72;;;0.90;;
16440;SDS011;8330;-33.858;151.184;2023-07-28T00:14:42;1.73;;;0.95;;
16440;SDS011;8330;-33.858;151.184;2023-07-28T00:17:14;1.05;;;0.70;;
16440;SDS011;8330;-33.858;151.184;2023-07-28T00:19:45;1.42;;;0.70;;
16440;SDS011;8330;-33.858;151.184;2023-07-28T00:22:16;2.08;;;0.90;;
16440;SDS011;8330;-33.858;151.184;2023-07-28T00:24:46;2.70;;;0.80;;
16440;SDS011;8330;-33.858;151.184;2023-07-28T00:27:17;2.45;;;0.90;;
16440;SDS011;8330;-33.858;151.184;2023-07-28T00:29:48;1.60;;;0.85;;
16440;SDS011;8330;-33.858;151.184;2023-07-28T00:32:21;1.42;;;0.80;;
16440;SDS011;8330;-33.858;151.184;2023-07-28T00:34:53;1.40;;;0.70;;
16440;SDS011;8330;-33.858;151.184;2023-07-28T00:37:24;1.25;;;0.95;;
16440;SDS011;8330;-33.858;151.184;2023-07-28T00:39:55;1.17;;;0.90;;
16440;SDS011;8330;-33.858;151.184;2023-07-28T00:42:25;4.63;;;0.93;;
16440;SDS011;8330;-33.858;151.184;2023-07-28T00:44:56;2.20;;;0.90;;
16440;SDS011;8330;-33.858;151.184;2023-07-28T00:47:29;1.25;;;0.80;;
16440;SDS011;8330;-33.858;151.184;2023-07-28T00:50:00;1.08;;;0.80;;
16440;SDS011;8330;-33.858;151.184;2023-07-28T00:52:31;0.75;;;0.65;;
16440;SDS011;8330;-33.858;151.184;2023-07-28T00:55:02;3.70;;;0.90;;
16440;SDS011;8330;-33.858;151.184;2023-07-28T00:57:33;3.97;;;0.70;;
16440;SDS011;8330;-33.858;151.184;2023-07-28T01:00:05;1.02;;;0.80;;
16440;SDS011;8330;-33.858;151.184;2023-07-28T01:02:39;2.47;;;0.90;;
16440;SDS011;8330;-33.858;151.184;2023-07-28T01:05:10;1.00;;;0.73;;
16440;SDS011;8330;-33.858;151.184;2023-07-28T01:07:42;2.08;;;1.35;;
16440;SDS011;8330;-33.858;151.184;2023-07-28T01:10:22;1.95;;;0.90;;
16440;SDS011;8330;-33.858;151.184;2023-07-28T01:12:55;1.67;;;0.88;;
16440;SDS011;8330;-33.858;151.184;2023-07-28T01:15:26;0.98;;;0.70;;
16440;SDS011;8330;-33.858;151.184;2023-07-28T01:17:58;1.10;;;0.80;;
16440;SDS011;8330;-33.858;151.184;2023-07-28T01:20:30;1.92;;;1.00;;
16440;SDS011;8330;-33.858;151.184;2023-07-28T01:23:07;1.90;;;1.00;;
16440;SDS011;8330;-33.858;151.184;2023-07-28T01:25:55;2.33;;;0.90;;
16440;SDS011;8330;-33.858;151.184;2023-07-28T01:28:35;1.63;;;0.70;;
16440;SDS011;8330;-33.858;151.184;2023-07-28T01:31:08;1.00;;;0.85;;
16440;SDS011;8330;-33.858;151.184;2023-07-28T01:33:38;1.15;;;0.70;;
16440;SDS011;8330;-33.858;151.184;2023-07-28T01:36:09;1.48;;;0.98;;
16440;SDS011;8330;-33.858;151.184;2023-07-28T01:38:40;1.48;;;0.80;;
16440;SDS011;8330;-33.858;151.184;2023-07-28T01:41:11;2.33;;;0.68;;
16440;SDS011;8330;-33.858;151.184;2023-07-28T01:43:44;1.92;;;0.95;;
16440;SDS011;8330;-33.858;151.184;2023-07-28T01:46:14;2.30;;;1.10;;
16440;SDS011;8330;-33.858;151.184;2023-07-28T01:48:45;2.28;;;0.77;;
16440;SDS011;8330;-33.858;151.184;2023-07-28T01:51:16;1.48;;;0.70;;
16440;SDS011;8330;-33.858;151.184;2023-07-28T01:53:46;0.85;;;0.80;;
16440;SDS011;8330;-33.858;151.184;2023-07-28T01:56:17;1.38;;;0.80;;
16440;SDS011;8330;-33.858;151.184;2023-07-28T01:58:50;1.42;;;0.82;;
16440;SDS011;8330;-33.858;151.184;2023-07-28T02:01:21;2.63;;;1.00;;
16440;SDS011;8330;-33.858;151.184;2023-07-28T02:03:52;0.90;;;0.63;;
16440;SDS011;8330;-33.858;151.184;2023-07-28T02:06:23;1.08;;;0.60;;
16440;SDS011;8330;-33.858;151.184;2023-07-28T02:08:54;0.95;;;0.63;;
16440;SDS011;8330;-33.858;151.184;2023-07-28T02:11:24;3.95;;;0.73;;
16440;SDS011;8330;-33.858;151.184;2023-07-28T02:13:57;0.90;;;0.60;;
16440;SDS011;8330;-33.858;151.184;2023-07-28T02:16:28;1.23;;;0.60;;
16440;SDS011;8330;-33.858;151.184;2023-07-28T02:18:59;2.92;;;0.60;;
16440;SDS011;8330;-33.858;151.184;2023-07-28T02:21:29;1.65;;;0.60;;
16440;SDS011;8330;-33.858;151.184;2023-07-28T02:24:00;0.95;;;0.75;;
16440;SDS011;8330;-33.858;151.184;2023-07-28T02:26:31;0.77;;;0.65;;
16440;SDS011;8330;-33.858;151.184;2023-07-28T02:29:08;2.28;;;0.75;;
16440;SDS011;8330;-33.858;151.184;2023-07-28T02:31:39;1.92;;;0.75;;
16440;SDS011;8330;-33.858;151.184;2023-07-28T02:34:11;1.10;;;0.60;;
16440;SDS011;8330;-33.858;151.184;2023-07-28T02:36:45;1.67;;;0.80;;
16440;SDS011;8330;-33.858;151.184;2023-07-28T02:39:16;1.27;;;0.70;;
16440;SDS011;8330;-33.858;151.184;2023-07-28T02:41:47;2.20;;;0.85;;
16440;SDS011;8330;-33.858;151.184;2023-07-28T02:44:22;2.25;;;0.68;;
16440;SDS011;8330;-33.858;151.184;2023-07-28T02:46:53;1.35;;;0.68;;
16440;SDS011;8330;-33.858;151.184;2023-07-28T02:49:24;3.03;;;0.80;;
16440;SDS011;8330;-33.858;151.184;2023-07-28T02:51:55;2.35;;;0.90;;
16440;SDS011;8330;-33.858;151.184;2023-07-28T02:54:26;2.90;;;0.93;;
16440;SDS011;8330;-33.858;151.184;2023-07-28T02:56:57;1.80;;;1.10;;
16440;SDS011;8330;-33.858;151.184;2023-07-28T02:59:30;2.65;;;1.10;;
16440;SDS011;8330;-33.858;151.184;2023-07-28T03:02:01;3.50;;;0.90;;
16440;SDS011;8330;-33.858;151.184;2023-07-28T03:04:31;2.00;;;1.00;;
16440;SDS011;8330;-33.858;151.184;2023-07-28T03:07:02;1.35;;;1.08;;
16440;SDS011;8330;-33.858;151.184;2023-07-28T03:09:33;2.35;;;1.13;;
16440;SDS011;8330;-33.858;151.184;2023-07-28T03:12:04;1.83;;;1.02;;
16440;SDS011;8330;-33.858;151.184;2023-07-28T03:14:37;1.42;;;1.00;;
16440;SDS011;8330;-33.858;151.184;2023-07-28T03:17:09;1.10;;;0.85;;
16440;SDS011;8330;-33.858;151.184;2023-07-28T03:19:40;2.25;;;1.17;;
16440;SDS011;8330;-33.858;151.184;2023-07-28T03:22:11;2.17;;;1.08;;
16440;SDS011;8330;-33.858;151.184;2023-07-28T03:24:42;1.75;;;1.30;;
16440;SDS011;8330;-33.858;151.184;2023-07-28T03:27:13;2.78;;;1.20;;
16440;SDS011;8330;-33.858;151.184;2023-07-28T03:29:45;2.40;;;1.20;;
16440;SDS011;8330;-33.858;151.184;2023-07-28T03:32:16;1.73;;;1.20;;
16440;SDS011;8330;-33.858;151.184;2023-07-28T03:34:47;2.92;;;1.13;;
16440;SDS011;8330;-33.858;151.184;2023-07-28T03:37:17;1.92;;;1.00;;
16440;SDS011;8330;-33.858;151.184;2023-07-28T03:39:48;1.58;;;1.00;;
16440;SDS011;8330;-33.858;151.184;2023-07-28T03:42:21;2.05;;;1.30;;
16440;SDS011;8330;-33.858;151.184;2023-07-28T03:44:54;4.43;;;2.35;;
16440;SDS011;8330;-33.858;151.184;2023-07-28T03:47:25;1.83;;;0.95;;
16440;SDS011;8330;-33.858;151.184;2023-07-28T03:49:56;2.78;;;0.93;;
16440;SDS011;8330;-33.858;151.184;2023-07-28T03:52:27;2.22;;;0.88;;
16440;SDS011;8330;-33.858;151.184;2023-07-28T03:54:58;1.85;;;0.70;;
16440;SDS011;8330;-33.858;151.184;2023-07-28T03:57:29;2.35;;;0.80;;
16440;SDS011;8330;-33.858;151.184;2023-07-28T04:00:01;1.38;;;0.80;;
16440;SDS011;8330;-33.858;151.184;2023-07-28T04:02:33;0.88;;;0.70;;
16440;SDS011;8330;-33.858;151.184;2023-07-28T04:05:04;4.30;;;1.10;;
16440;SDS011;8330;-33.858;151.184;2023-07-28T04:07:35;1.88;;;0.82;;
16440;SDS011;8330;-33.858;151.184;2023-07-28T04:10:07;1.77;;;0.80;;
16440;SDS011;8330;-33.858;151.184;2023-07-28T04:12:38;2.33;;;1.05;;
16440;SDS011;8330;-33.858;151.184;2023-07-28T04:15:11;2.45;;;0.88;;
16440;SDS011;8330;-33.858;151.184;2023-07-28T04:17:42;1.95;;;0.80;;
16440;SDS011;8330;-33.858;151.184;2023-07-28T04:20:13;3.75;;;0.82;;
16440;SDS011;8330;-33.858;151.184;2023-07-28T04:22:43;2.35;;;0.85;;
16440;SDS011;8330;-33.858;151.184;2023-07-28T04:25:14;3.90;;;0.90;;
16440;SDS011;8330;-33.858;151.184;2023-07-28T04:27:45;3.03;;;0.93;;
16440;SDS011;8330;-33.858;151.184;2023-07-28T04:30:18;6.07;;;1.75;;
16440;SDS011;8330;-33.858;151.184;2023-07-28T04:32:49;1.88;;;0.90;;
16440;SDS011;8330;-33.858;151.184;2023-07-28T04:35:19;2.95;;;0.77;;
16440;SDS011;8330;-33.858;151.184;2023-07-28T04:37:50;1.80;;;0.80;;
16440;SDS011;8330;-33.858;151.184;2023-07-28T04:40:21;2.13;;;0.90;;
16440;SDS011;8330;-33.858;151.184;2023-07-28T04:42:52;2.45;;;0.73;;
16440;SDS011;8330;-33.858;151.184;2023-07-28T04:45:24;2.35;;;0.80;;
16440;SDS011;8330;-33.858;151.184;2023-07-28T04:47:56;2.47;;;0.80;;
16440;SDS011;8330;-33.858;151.184;2023-07-28T04:50:26;1.58;;;0.75;;
16440;SDS011;8330;-33.858;151.184;2023-07-28T04:52:58;1.27;;;0.75;;
16440;SDS011;8330;-33.858;151.184;2023-07-28T04:55:29;3.22;;;1.00;;
16440;SDS011;8330;-33.858;151.184;2023-07-28T04:58:01;1.65;;;0.98;;
16440;SDS011;8330;-33.858;151.184;2023-07-28T05:00:34;1.83;;;0.90;;
16440;SDS011;8330;-33.858;151.184;2023-07-28T05:03:05;1.80;;;0.90;;
16440;SDS011;8330;-33.858;151.184;2023-07-28T05:05:35;2.83;;;0.80;;
16440;SDS011;8330;-33.858;151.184;2023-07-28T05:08:06;1.15;;;0.80;;
16440;SDS011;8330;-33.858;151.184;2023-07-28T05:10:37;2.35;;;0.80;;
16440;SDS011;8330;-33.858;151.184;2023-07-28T05:13:08;9.65;;;1.17;;
16440;SDS011;8330;-33.858;151.184;2023-07-28T05:15:40;2.83;;;1.00;;
16440;SDS011;8330;-33.858;151.184;2023-07-28T05:18:12;5.38;;;0.95;;
16440;SDS011;8330;-33.858;151.184;2023-07-28T05:20:43;2.40;;;0.93;;
16440;SDS011;8330;-33.858;151.184;2023-07-28T05:23:14;2.30;;;0.90;;
16440;SDS011;8330;-33.858;151.184;2023-07-28T05:25:45;2.28;;;0.80;;
16440;SDS011;8330;-33.858;151.184;2023-07-28T05:28:15;5.00;;;0.90;;
16440;SDS011;8330;-33.858;151.184;2023-07-28T05:30:48;1.50;;;0.77;;
16440;SDS011;8330;-33.858;151.184;2023-07-28T05:33:19;2.75;;;1.00;;
16440;SDS011;8330;-33.858;151.184;2023-07-28T05:35:58;3.25;;;0.80;;
16440;SDS011;8330;-33.858;151.184;2023-07-28T05:38:29;2.70;;;0.80;;
16440;SDS011;8330;-33.858;151.184;2023-07-28T05:41:01;1.20;;;0.80;;
16440;SDS011;8330;-33.858;151.184;2023-07-28T05:43:33;1.92;;;0.80;;
16440;SDS011;8330;-33.858;151.184;2023-07-28T05:46:08;3.50;;;0.93;;
16440;SDS011;8330;-33.858;151.184;2023-07-28T05:48:38;3.35;;;1.00;;
16440;SDS011;8330;-33.858;151.184;2023-07-28T05:51:09;2.25;;;0.80;;
16440;SDS011;8330;-33.858;151.184;2023-07-28T05:53:40;1.88;;;1.00;;
16440;SDS011;8330;-33.858;151.184;2023-07-28T05:56:11;1.60;;;1.00;;
16440;SDS011;8330;-33.858;151.184;2023-07-28T05:58:44;3.55;;;0.95;;
16440;SDS011;8330;-33.858;151.184;2023-07-28T06:01:17;0.77;;;0.60;;
16440;SDS011;8330;-33.858;151.184;2023-07-28T06:03:52;1.08;;;0.57;;
16440;SDS011;8330;-33.858;151.184;2023-07-28T06:06:25;2.50;;;0.70;;
16440;SDS011;8330;-33.858;151.184;2023-07-28T06:08:56;3.53;;;0.63;;
16440;SDS011;8330;-33.858;151.184;2023-07-28T06:11:26;2.05;;;0.80;;
16440;SDS011;8330;-33.858;151.184;2023-07-28T06:13:57;0.98;;;0.52;;
16440;SDS011;8330;-33.858;151.184;2023-07-28T06:16:30;2.65;;;0.70;;
16440;SDS011;8330;-33.858;151.184;2023-07-28T06:19:01;0.50;;;0.50;;
16440;SDS011;8330;-33.858;151.184;2023-07-28T06:21:34;0.82;;;0.63;;
16440;SDS011;8330;-33.858;151.184;2023-07-28T06:24:05;2.25;;;0.70;;
16440;SDS011;8330;-33.858;151.184;2023-07-28T06:26:36;0.80;;;0.63;;
16440;SDS011;8330;-33.858;151.184;2023-07-28T06:29:07;1.27;;;0.82;;
16440;SDS011;8330;-33.858;151.184;2023-07-28T06:31:39;2.08;;;0.80;;
16440;SDS011;8330;-33.858;151.184;2023-07-28T06:34:10;3.80;;;0.70;;
16440;SDS011;8330;-33.858;151.184;2023-07-28T06:36:41;2.88;;;0.70;;
16440;SDS011;8330;-33.858;151.184;2023-07-28T06:39:14;1.40;;;0.60;;
16440;SDS011;8330;-33.858;151.184;2023-07-28T06:41:45;0.73;;;0.47;;
16440;SDS011;8330;-33.858;151.184;2023-07-28T06:44:16;2.97;;;0.90;;
16440;SDS011;8330;-33.858;151.184;2023-07-28T06:46:50;1.42;;;0.77;;
16440;SDS011;8330;-33.858;151.184;2023-07-28T06:49:23;0.90;;;0.70;;
16440;SDS011;8330;-33.858;151.184;2023-07-28T06:51:54;1.02;;;0.70;;
16440;SDS011;8330;-33.858;151.184;2023-07-28T06:54:25;1.17;;;0.60;;
16440;SDS011;8330;-33.858;151.184;2023-07-28T06:56:56;0.50;;;0.50;;
16440;SDS011;8330;-33.858;151.184;2023-07-28T06:59:30;3.30;;;1.00;;
16440;SDS011;8330;-33.858;151.184;2023-07-28T07:02:03;1.23;;;0.68;;
16440;SDS011;8330;-33.858;151.184;2023-07-28T07:04:35;1.10;;;0.60;;
16440;SDS011;8330;-33.858;151.184;2023-07-28T07:07:06;2.65;;;0.90;;
16440;SDS011;8330;-33.858;151.184;2023-07-28T07:09:36;1.85;;;0.98;;
16440;SDS011;8330;-33.858;151.184;2023-07-28T07:12:08;4.22;;;1.85;;
16440;SDS011;8330;-33.858;151.184;2023-07-28T07:14:40;3.25;;;1.17;;
16440;SDS011;8330;-33.858;151.184;2023-07-28T07:17:24;2.05;;;1.08;;
16440;SDS011;8330;-33.858;151.184;2023-07-28T07:20:25;3.53;;;1.00;;
16440;SDS011;8330;-33.858;151.184;2023-07-28T07:22:56;2.90;;;1.20;;
16440;SDS011;8330;-33.858;151.184;2023-07-28T07:25:27;1.52;;;0.95;;
16440;SDS011;8330;-33.858;151.184;2023-07-28T07:27:58;2.08;;;1.17;;
16440;SDS011;8330;-33.858;151.184;2023-07-28T07:30:32;2.05;;;1.00;;
16440;SDS011;8330;-33.858;151.184;2023-07-28T07:33:06;1.52;;;1.10;;
16440;SDS011;8330;-33.858;151.184;2023-07-28T07:35:37;2.58;;;1.30;;
16440;SDS011;8330;-33.858;151.184;2023-07-28T07:38:08;2.95;;;1.20;;
16440;SDS011;8330;-33.858;151.184;2023-07-28T07:40:39;2.67;;;1.50;;
16440;SDS011;8330;-33.858;151.184;2023-07-28T07:43:09;4.47;;;2.10;;
16440;SDS011;8330;-33.858;151.184;2023-07-28T07:45:45;2.80;;;2.03;;
16440;SDS011;8330;-33.858;151.184;2023-07-28T07:48:19;2.15;;;1.50;;
16440;SDS011;8330;-33.858;151.184;2023-07-28T07:50:50;4.85;;;2.25;;
16440;SDS011;8330;-33.858;151.184;2023-07-28T07:53:24;1.88;;;1.35;;
16440;SDS011;8330;-33.858;151.184;2023-07-28T07:55:55;4.15;;;1.50;;
16440;SDS011;8330;-33.858;151.184;2023-07-28T07:58:26;2.25;;;1.35;;
16440;SDS011;8330;-33.858;151.184;2023-07-28T08:00:57;4.10;;;2.28;;
16440;SDS011;8330;-33.858;151.184;2023-07-28T08:03:29;3.30;;;2.20;;
16440;SDS011;8330;-33.858;151.184;2023-07-28T08:06:02;3.65;;;2.20;;
16440;SDS011;8330;-33.858;151.184;2023-07-28T08:08:35;3.22;;;2.30;;
16440;SDS011;8330;-33.858;151.184;2023-07-28T08:11:07;9.05;;;4.53;;
16440;SDS011;8330;-33.858;151.184;2023-07-28T08:13:39;6.35;;;3.92;;
16440;SDS011;8330;-33.858;151.184;2023-07-28T08:16:11;4.13;;;2.95;;
16440;SDS011;8330;-33.858;151.184;2023-07-28T08:18:46;7.60;;;3.58;;
16440;SDS011;8330;-33.858;151.184;2023-07-28T08:21:18;5.85;;;2.83;;
16440;SDS011;8330;-33.858;151.184;2023-07-28T08:23:50;4.82;;;2.67;;
16440;SDS011;8330;-33.858;151.184;2023-07-28T08:26:22;3.83;;;1.98;;
16440;SDS011;8330;-33.858;151.184;2023-07-28T08:28:53;2.67;;;1.55;;
16440;SDS011;8330;-33.858;151.184;2023-07-28T08:31:25;2.33;;;1.50;;
16440;SDS011;8330;-33.858;151.184;2023-07-28T08:33:57;3.42;;;1.83;;
16440;SDS011;8330;-33.858;151.184;2023-07-28T08:36:29;4.45;;;2.50;;
16440;SDS011;8330;-33.858;151.184;2023-07-28T08:38:59;3.53;;;2.55;;
16440;SDS011;8330;-33.858;151.184;2023-07-28T08:41:30;6.55;;;2.40;;
16440;SDS011;8330;-33.858;151.184;2023-07-28T08:44:02;2.72;;;1.92;;
16440;SDS011;8330;-33.858;151.184;2023-07-28T08:46:33;3.08;;;1.80;;
16440;SDS011;8330;-33.858;151.184;2023-07-28T08:49:06;5.07;;;2.20;;
16440;SDS011;8330;-33.858;151.184;2023-07-28T08:51:40;2.40;;;1.30;;
16440;SDS011;8330;-33.858;151.184;2023-07-28T08:54:11;4.45;;;2.63;;
16440;SDS011;8330;-33.858;151.184;2023-07-28T08:56:43;5.63;;;2.50;;
16440;SDS011;8330;-33.858;151.184;2023-07-28T08:59:20;5.35;;;2.78;;
16440;SDS011;8330;-33.858;151.184;2023-07-28T09:01:53;4.43;;;3.00;;
16440;SDS011;8330;-33.858;151.184;2023-07-28T09:04:27;4.25;;;2.38;;
16440;SDS011;8330;-33.858;151.184;2023-07-28T09:06:58;4.50;;;2.95;;
16440;SDS011;8330;-33.858;151.184;2023-07-28T09:09:33;5.28;;;3.50;;
16440;SDS011;8330;-33.858;151.184;2023-07-28T09:12:04;5.55;;;3.35;;
16440;SDS011;8330;-33.858;151.184;2023-07-28T09:14:36;6.85;;;3.42;;
16440;SDS011;8330;-33.858;151.184;2023-07-28T09:17:08;8.75;;;3.38;;
16440;SDS011;8330;-33.858;151.184;2023-07-28T09:19:54;5.13;;;3.35;;
16440;SDS011;8330;-33.858;151.184;2023-07-28T09:22:25;3.90;;;3.08;;
16440;SDS011;8330;-33.858;151.184;2023-07-28T09:24:58;4.80;;;2.13;;
16440;SDS011;8330;-33.858;151.184;2023-07-28T09:27:43;3.70;;;2.00;;
16440;SDS011;8330;-33.858;151.184;2023-07-28T09:30:20;2.38;;;1.48;;
16440;SDS011;8330;-33.858;151.184;2023-07-28T09:32:53;1.95;;;1.52;;
16440;SDS011;8330;-33.858;151.184;2023-07-28T09:35:26;4.22;;;1.35;;
16440;SDS011;8330;-33.858;151.184;2023-07-28T09:37:57;1.77;;;1.10;;
16440;SDS011;8330;-33.858;151.184;2023-07-28T09:40:30;2.30;;;1.30;;
16440;SDS011;8330;-33.858;151.184;2023-07-28T09:43:00;1.92;;;1.30;;
16440;SDS011;8330;-33.858;151.184;2023-07-28T09:45:31;2.20;;;1.50;;
16440;SDS011;8330;-33.858;151.184;2023-07-28T09:48:06;2.65;;;1.60;;
16440;SDS011;8330;-33.858;151.184;2023-07-28T09:50:41;2.58;;;1.60;;
16440;SDS011;8330;-33.858;151.184;2023-07-28T09:53:13;3.80;;;1.77;;
16440;SDS011;8330;-33.858;151.184;2023-07-28T09:55:44;2.10;;;1.60;;
16440;SDS011;8330;-33.858;151.184;2023-07-28T09:58:18;3.17;;;2.15;;
16440;SDS011;8330;-33.858;151.184;2023-07-28T10:00:54;1.98;;;1.50;;
16440;SDS011;8330;-33.858;151.184;2023-07-28T10:03:25;2.72;;;1.75;;
16440;SDS011;8330;-33.858;151.184;2023-07-28T10:06:00;4.35;;;1.85;;
16440;SDS011;8330;-33.858;151.184;2023-07-28T10:08:32;2.40;;;1.63;;
16440;SDS011;8330;-33.858;151.184;2023-07-28T10:11:07;6.18;;;2.05;;
16440;SDS011;8330;-33.858;151.184;2023-07-28T10:13:41;3.25;;;2.03;;
16440;SDS011;8330;-33.858;151.184;2023-07-28T10:16:12;2.97;;;1.80;;
16440;SDS011;8330;-33.858;151.184;2023-07-28T10:18:51;4.43;;;2.03;;
16440;SDS011;8330;-33.858;151.184;2023-07-28T10:21:27;3.55;;;1.80;;
16440;SDS011;8330;-33.858;151.184;2023-07-28T10:23:59;3.20;;;2.13;;
16440;SDS011;8330;-33.858;151.184;2023-07-28T10:26:37;3.97;;;2.60;;
16440;SDS011;8330;-33.858;151.184;2023-07-28T10:29:09;6.47;;;2.30;;
16440;SDS011;8330;-33.858;151.184;2023-07-28T10:31:50;5.00;;;2.53;;
16440;SDS011;8330;-33.858;151.184;2023-07-28T10:34:23;3.33;;;2.45;;
16440;SDS011;8330;-33.858;151.184;2023-07-28T10:37:00;3.95;;;2.72;;
16440;SDS011;8330;-33.858;151.184;2023-07-28T10:39:34;4.25;;;2.78;;
16440;SDS011;8330;-33.858;151.184;2023-07-28T10:42:05;3.53;;;2.80;;
16440;SDS011;8330;-33.858;151.184;2023-07-28T10:44:38;3.83;;;2.25;;
16440;SDS011;8330;-33.858;151.184;2023-07-28T10:47:09;4.90;;;2.22;;
16440;SDS011;8330;-33.858;151.184;2023-07-28T10:49:41;2.85;;;2.10;;
16440;SDS011;8330;-33.858;151.184;2023-07-28T10:52:13;3.05;;;1.90;;
16440;SDS011;8330;-33.858;151.184;2023-07-28T10:54:46;3.63;;;1.90;;
16440;SDS011;8330;-33.858;151.184;2023-07-28T10:57:17;3.95;;;2.10;;
16440;SDS011;8330;-33.858;151.184;2023-07-28T10:59:50;3.58;;;2.25;;
16440;SDS011;8330;-33.858;151.184;2023-07-28T11:02:21;3.08;;;2.08;;
16440;SDS011;8330;-33.858;151.184;2023-07-28T11:04:53;5.03;;;2.75;;
16440;SDS011;8330;-33.858;151.184;2023-07-28T11:07:25;5.00;;;3.80;;
16440;SDS011;8330;-33.858;151.184;2023-07-28T11:09:56;6.78;;;3.33;;
16440;SDS011;8330;-33.858;151.184;2023-07-28T11:12:30;4.25;;;2.83;;
16440;SDS011;8330;-33.858;151.184;2023-07-28T11:15:01;5.20;;;3.15;;
16440;SDS011;8330;-33.858;151.184;2023-07-28T11:17:32;5.35;;;2.70;;
16440;SDS011;8330;-33.858;151.184;2023-07-28T11:20:05;4.15;;;2.58;;
16440;SDS011;8330;-33.858;151.184;2023-07-28T11:22:47;6.10;;;3.00;;
16440;SDS011;8330;-33.858;151.184;2023-07-28T11:25:21;5.40;;;2.50;;
16440;SDS011;8330;-33.858;151.184;2023-07-28T11:27:53;6.50;;;2.38;;
16440;SDS011;8330;-33.858;151.184;2023-07-28T11:30:24;4.75;;;3.20;;
16440;SDS011;8330;-33.858;151.184;2023-07-28T11:32:55;6.60;;;4.45;;
16440;SDS011;8330;-33.858;151.184;2023-07-28T11:35:26;5.28;;;3.00;;
16440;SDS011;8330;-33.858;151.184;2023-07-28T11:37:59;3.22;;;2.58;;
16440;SDS011;8330;-33.858;151.184;2023-07-28T11:40:30;4.75;;;2.88;;
16440;SDS011;8330;-33.858;151.184;2023-07-28T11:43:02;4.35;;;2.60;;
16440;SDS011;8330;-33.858;151.184;2023-07-28T11:45:33;3.47;;;2.92;;
16440;SDS011;8330;-33.858;151.184;2023-07-28T11:48:06;4.30;;;2.70;;
16440;SDS011;8330;-33.858;151.184;2023-07-28T11:50:37;8.60;;;3.22;;
16440;SDS011;8330;-33.858;151.184;2023-07-28T11:53:12;4.45;;;2.75;;
16440;SDS011;8330;-33.858;151.184;2023-07-28T11:55:43;7.65;;;2.80;;
16440;SDS011;8330;-33.858;151.184;2023-07-28T11:58:13;6.18;;;3.15;;
16440;SDS011;8330;-33.858;151.184;2023-07-28T12:00:46;9.88;;;2.90;;
16440;SDS011;8330;-33.858;151.184;2023-07-28T12:03:17;4.68;;;2.67;;
16440;SDS011;8330;-33.858;151.184;2023-07-28T12:08:47;5.32;;;2.65;;
16440;SDS011;8330;-33.858;151.184;2023-07-28T12:11:37;8.32;;;3.42;;
16440;SDS011;8330;-33.858;151.184;2023-07-28T12:14:30;5.53;;;3.22;;
16440;SDS011;8330;-33.858;151.184;2023-07-28T12:17:16;3.67;;;2.78;;
16440;SDS011;8330;-33.858;151.184;2023-07-28T12:19:58;6.72;;;3.50;;
16440;SDS011;8330;-33.858;151.184;2023-07-28T12:22:36;4.45;;;3.20;;
16440;SDS011;8330;-33.858;151.184;2023-07-28T12:25:09;6.95;;;3.20;;
16440;SDS011;8330;-33.858;151.184;2023-07-28T12:27:41;6.00;;;3.22;;
16440;SDS011;8330;-33.858;151.184;2023-07-28T12:30:17;8.52;;;3.30;;
16440;SDS011;8330;-33.858;151.184;2023-07-28T12:32:50;5.30;;;3.40;;
16440;SDS011;8330;-33.858;151.184;2023-07-28T12:35:22;4.50;;;3.00;;
16440;SDS011;8330;-33.858;151.184;2023-07-28T12:37:58;5.90;;;3.38;;
16440;SDS011;8330;-33.858;151.184;2023-07-28T12:40:35;4.93;;;3.25;;
16440;SDS011;8330;-33.858;151.184;2023-07-28T12:43:07;4.93;;;3.30;;
16440;SDS011;8330;-33.858;151.184;2023-07-28T12:45:42;5.07;;;3.20;;
16440;SDS011;8330;-33.858;151.184;2023-07-28T12:48:15;4.50;;;2.97;;
16440;SDS011;8330;-33.858;151.184;2023-07-28T12:50:52;6.90;;;3.33;;
16440;SDS011;8330;-33.858;151.184;2023-07-28T12:53:23;9.10;;;3.67;;
16440;SDS011;8330;-33.858;151.184;2023-07-28T12:55:57;4.13;;;2.75;;
16440;SDS011;8330;-33.858;151.184;2023-07-28T12:58:33;5.93;;;2.97;;
16440;SDS011;8330;-33.858;151.184;2023-07-28T13:01:04;3.95;;;3.00;;
16440;SDS011;8330;-33.858;151.184;2023-07-28T13:03:38;5.80;;;3.15;;
16440;SDS011;8330;-33.858;151.184;2023-07-28T13:06:09;6.05;;;3.30;;
16440;SDS011;8330;-33.858;151.184;2023-07-28T13:08:41;6.82;;;3.17;;
16440;SDS011;8330;-33.858;151.184;2023-07-28T13:11:15;5.55;;;3.15;;
16440;SDS011;8330;-33.858;151.184;2023-07-28T13:13:46;5.32;;;3.10;;
16440;SDS011;8330;-33.858;151.184;2023-07-28T13:16:18;5.82;;;2.92;;
16440;SDS011;8330;-33.858;151.184;2023-07-28T13:18:49;5.43;;;3.10;;
16440;SDS011;8330;-33.858;151.184;2023-07-28T13:21:20;5.22;;;3.40;;
16440;SDS011;8330;-33.858;151.184;2023-07-28T13:23:51;6.20;;;3.35;;
16440;SDS011;8330;-33.858;151.184;2023-07-28T13:26:36;6.75;;;3.55;;
16440;SDS011;8330;-33.858;151.184;2023-07-28T13:29:10;7.82;;;3.65;;
16440;SDS011;8330;-33.858;151.184;2023-07-28T13:31:40;9.57;;;3.40;;
16440;SDS011;8330;-33.858;151.184;2023-07-28T13:34:11;6.53;;;3.20;;
16440;SDS011;8330;-33.858;151.184;2023-07-28T13:36:42;6.18;;;3.40;;
16440;SDS011;8330;-33.858;151.184;2023-07-28T13:39:13;5.72;;;3.10;;
16440;SDS011;8330;-33.858;151.184;2023-07-28T13:41:47;5.90;;;3.40;;
16440;SDS011;8330;-33.858;151.184;2023-07-28T13:44:18;7.97;;;3.28;;
16440;SDS011;8330;-33.858;151.184;2023-07-28T13:46:49;7.72;;;3.60;;
16440;SDS011;8330;-33.858;151.184;2023-07-28T13:49:21;5.20;;;3.35;;
16440;SDS011;8330;-33.858;151.184;2023-07-28T13:51:53;7.18;;;3.90;;
16440;SDS011;8330;-33.858;151.184;2023-07-28T13:54:25;6.43;;;4.00;;
16440;SDS011;8330;-33.858;151.184;2023-07-28T13:56:59;5.95;;;4.18;;
16440;SDS011;8330;-33.858;151.184;2023-07-28T13:59:30;6.18;;;4.10;;
16440;SDS011;8330;-33.858;151.184;2023-07-28T14:02:01;8.18;;;4.68;;
16440;SDS011;8330;-33.858;151.184;2023-07-28T14:04:36;6.95;;;4.97;;
16440;SDS011;8330;-33.858;151.184;2023-07-28T14:07:07;7.65;;;5.10;;
16440;SDS011;8330;-33.858;151.184;2023-07-28T14:09:38;7.63;;;4.65;;
16440;SDS011;8330;-33.858;151.184;2023-07-28T14:12:12;8.65;;;4.63;;
16440;SDS011;8330;-33.858;151.184;2023-07-28T14:14:44;5.68;;;4.07;;
16440;SDS011;8330;-33.858;151.184;2023-07-28T14:17:22;10.38;;;4.22;;
16440;SDS011;8330;-33.858;151.184;2023-07-28T14:19:53;5.55;;;3.67;;
16440;SDS011;8330;-33.858;151.184;2023-07-28T14:22:25;6.68;;;4.55;;
16440;SDS011;8330;-33.858;151.184;2023-07-28T14:24:57;6.88;;;4.78;;
16440;SDS011;8330;-33.858;151.184;2023-07-28T14:27:31;8.82;;;4.80;;
16440;SDS011;8330;-33.858;151.184;2023-07-28T14:30:02;7.60;;;4.68;;
16440;SDS011;8330;-33.858;151.184;2023-07-28T14:32:33;11.82;;;5.45;;
16440;SDS011;8330;-33.858;151.184;2023-07-28T14:35:04;9.07;;;5.45;;
16440;SDS011;8330;-33.858;151.184;2023-07-28T14:37:36;9.25;;;5.82;;
16440;SDS011;8330;-33.858;151.184;2023-07-28T14:40:07;9.15;;;5.80;;
16440;SDS011;8330;-33.858;151.184;2023-07-28T14:42:42;9.73;;;5.80;;
16440;SDS011;8330;-33.858;151.184;2023-07-28T14:45:12;7.18;;;4.80;;
16440;SDS011;8330;-33.858;151.184;2023-07-28T14:47:44;9.85;;;5.60;;
16440;SDS011;8330;-33.858;151.184;2023-07-28T14:50:14;8.30;;;6.05;;
16440;SDS011;8330;-33.858;151.184;2023-07-28T14:52:45;9.10;;;6.78;;
16440;SDS011;8330;-33.858;151.184;2023-07-28T14:55:16;9.73;;;6.35;;